sensor_id;sensor_type;location;lat;lon;timestamp;temperature;humidity
53876;DHT22;39789;53.216;5.624;2023-04-25T02:59:24;5.80;99.90
53876;DHT22;39789;53.216;5.624;2023-04-25T03:02:10;5.70;99.90
53876;DHT22;39789;53.216;5.624;2023-04-25T03:36:21;5.80;99.90
53876;DHT22;39789;53.216;5.624;2023-04-25T03:38:49;4.80;99.90
53876;DHT22;39789;53.216;5.624;2023-04-25T03:57:25;5.40;99.90
53876;DHT22;39789;53.216;5.624;2023-04-25T04:00:23;4.80;99.90
53876;DHT22;39789;53.216;5.624;2023-04-25T04:31:32;5.40;99.90
53876;DHT22;39789;53.216;5.624;2023-04-25T04:34:06;5.30;99.90
53876;DHT22;39789;53.216;5.624;2023-04-25T04:36:31;6.60;99.90
53876;DHT22;39789;53.216;5.624;2023-04-25T04:39:08;6.30;99.90
53876;DHT22;39789;53.216;5.624;2023-04-25T04:41:38;5.30;99.90
53876;DHT22;39789;53.216;5.624;2023-04-25T04:44:11;6.50;99.90
53876;DHT22;39789;53.216;5.624;2023-04-25T04:46:37;4.80;99.90
53876;DHT22;39789;53.216;5.624;2023-04-25T04:51:45;5.50;99.90
53876;DHT22;39789;53.216;5.624;2023-04-25T05:01:09;5.40;99.90
53876;DHT22;39789;53.216;5.624;2023-04-25T05:07:10;5.00;99.90
53876;DHT22;39789;53.216;5.624;2023-04-25T05:10:08;4.80;99.90
53876;DHT22;39789;53.216;5.624;2023-04-25T06:04:40;6.50;99.90
53876;DHT22;39789;53.216;5.624;2023-04-25T06:07:12;7.60;99.90
53876;DHT22;39789;53.216;5.624;2023-04-25T06:10:24;6.80;99.90
53876;DHT22;39789;53.216;5.624;2023-04-25T06:15:25;6.80;99.90
53876;DHT22;39789;53.216;5.624;2023-04-25T06:20:29;6.80;99.90
53876;DHT22;39789;53.216;5.624;2023-04-25T06:23:00;6.30;99.90
53876;DHT22;39789;53.216;5.624;2023-04-25T06:39:01;6.80;99.90
53876;DHT22;39789;53.216;5.624;2023-04-25T06:42:46;6.60;99.90
53876;DHT22;39789;53.216;5.624;2023-04-25T06:45:56;5.20;99.90
53876;DHT22;39789;53.216;5.624;2023-04-25T06:55:55;6.60;99.90
53876;DHT22;39789;53.216;5.624;2023-04-25T06:58:21;6.80;99.90
53876;DHT22;39789;53.216;5.624;2023-04-25T07:01:12;6.10;99.90
53876;DHT22;39789;53.216;5.624;2023-04-25T07:03:53;6.70;99.90
53876;DHT22;39789;53.216;5.624;2023-04-25T07:06:22;6.80;99.90
53876;DHT22;39789;53.216;5.624;2023-04-25T08:26:11;9.70;99.90
53876;DHT22;39789;53.216;5.624;2023-04-25T11:12:36;8.80;99.90
53876;DHT22;39789;53.216;5.624;2023-04-25T11:15:37;9.50;99.90
53876;DHT22;39789;53.216;5.624;2023-04-25T14:14:49;9.20;99.90
53876;DHT22;39789;53.216;5.624;2023-04-25T15:21:06;9.60;99.90
53876;DHT22;39789;53.216;5.624;2023-04-25T15:24:21;10.50;99.90
53876;DHT22;39789;53.216;5.624;2023-04-25T15:29:22;8.90;99.90
53876;DHT22;39789;53.216;5.624;2023-04-25T15:32:00;8.70;99.90
53876;DHT22;39789;53.216;5.624;2023-04-25T15:47:37;8.20;99.90
53876;DHT22;39789;53.216;5.624;2023-04-25T16:13:48;8.50;99.90
53876;DHT22;39789;53.216;5.624;2023-04-25T16:16:45;9.30;99.90
53876;DHT22;39789;53.216;5.624;2023-04-25T16:19:29;10.00;99.90
53876;DHT22;39789;53.216;5.624;2023-04-25T16:24:36;8.90;99.90
53876;DHT22;39789;53.216;5.624;2023-04-25T16:27:10;7.50;99.90
53876;DHT22;39789;53.216;5.624;2023-04-25T16:35:05;8.50;99.90
53876;DHT22;39789;53.216;5.624;2023-04-25T16:37:43;8.10;99.90
53876;DHT22;39789;53.216;5.624;2023-04-25T16:40:20;9.00;99.90
53876;DHT22;39789;53.216;5.624;2023-04-25T16:42:46;8.70;99.90
53876;DHT22;39789;53.216;5.624;2023-04-25T16:47:59;8.30;99.90
53876;DHT22;39789;53.216;5.624;2023-04-25T16:50:39;7.60;99.90
53876;DHT22;39789;53.216;5.624;2023-04-25T16:53:08;9.50;99.90
53876;DHT22;39789;53.216;5.624;2023-04-25T16:55:39;7.50;99.90
53876;DHT22;39789;53.216;5.624;2023-04-25T16:58:14;8.20;99.90
53876;DHT22;39789;53.216;5.624;2023-04-25T17:00:48;8.60;99.90
53876;DHT22;39789;53.216;5.624;2023-04-25T17:03:24;7.40;99.90
53876;DHT22;39789;53.216;5.624;2023-04-25T17:11:54;7.90;99.90
53876;DHT22;39789;53.216;5.624;2023-04-25T17:14:35;8.20;99.90
53876;DHT22;39789;53.216;5.624;2023-04-25T17:17:13;7.20;99.90
53876;DHT22;39789;53.216;5.624;2023-04-25T17:27:39;7.40;99.90
53876;DHT22;39789;53.216;5.624;2023-04-25T17:30:14;7.80;99.90
53876;DHT22;39789;53.216;5.624;2023-04-25T17:32:49;7.40;99.90
53876;DHT22;39789;53.216;5.624;2023-04-25T17:35:27;7.10;99.90
53876;DHT22;39789;53.216;5.624;2023-04-25T17:38:15;7.30;99.90
53876;DHT22;39789;53.216;5.624;2023-04-25T17:40:44;7.50;99.90
53876;DHT22;39789;53.216;5.624;2023-04-25T17:43:12;8.10;99.90
53876;DHT22;39789;53.216;5.624;2023-04-25T17:45:43;7.40;99.90
53876;DHT22;39789;53.216;5.624;2023-04-25T17:53:23;7.30;99.90
53876;DHT22;39789;53.216;5.624;2023-04-25T17:55:52;6.80;99.90
53876;DHT22;39789;53.216;5.624;2023-04-25T17:58:47;7.40;99.90
53876;DHT22;39789;53.216;5.624;2023-04-25T18:03:51;6.90;99.90
53876;DHT22;39789;53.216;5.624;2023-04-25T18:11:36;6.80;99.90
53876;DHT22;39789;53.216;5.624;2023-04-25T18:14:05;6.70;99.90
53876;DHT22;39789;53.216;5.624;2023-04-25T18:16:41;6.30;99.90
53876;DHT22;39789;53.216;5.624;2023-04-25T18:19:10;7.00;99.90
53876;DHT22;39789;53.216;5.624;2023-04-25T18:21:43;9.60;99.90
53876;DHT22;39789;53.216;5.624;2023-04-25T18:29:23;6.60;99.90
53876;DHT22;39789;53.216;5.624;2023-04-25T18:31:52;6.40;99.90
53876;DHT22;39789;53.216;5.624;2023-04-25T18:34:18;6.60;99.90
53876;DHT22;39789;53.216;5.624;2023-04-25T18:52:28;6.40;99.90
53876;DHT22;39789;53.216;5.624;2023-04-25T18:55:00;5.90;99.90
53876;DHT22;39789;53.216;5.624;2023-04-25T18:57:29;5.80;99.90
53876;DHT22;39789;53.216;5.624;2023-04-25T19:02:34;6.30;99.90
53876;DHT22;39789;53.216;5.624;2023-04-25T19:15:22;6.10;99.90
53876;DHT22;39789;53.216;5.624;2023-04-25T19:17:59;7.50;99.90
53876;DHT22;39789;53.216;5.624;2023-04-25T20:12:19;5.30;99.90
53876;DHT22;39789;53.216;5.624;2023-04-25T20:14:56;5.00;99.90
53876;DHT22;39789;53.216;5.624;2023-04-25T20:17:25;6.50;99.90
53876;DHT22;39789;53.216;5.624;2023-04-25T20:49:36;4.70;99.90
53876;DHT22;39789;53.216;5.624;2023-04-25T20:52:02;5.10;99.90
53876;DHT22;39789;53.216;5.624;2023-04-25T20:54:33;6.40;99.90
53876;DHT22;39789;53.216;5.624;2023-04-25T20:57:07;5.50;99.90
53876;DHT22;39789;53.216;5.624;2023-04-25T20:59:36;5.10;99.90
53876;DHT22;39789;53.216;5.624;2023-04-25T21:02:04;4.50;99.90
53876;DHT22;39789;53.216;5.624;2023-04-25T21:04:29;4.60;99.90
53876;DHT22;39789;53.216;5.624;2023-04-25T21:07:07;5.90;99.90
53876;DHT22;39789;53.216;5.624;2023-04-25T21:09:39;5.20;99.90
53876;DHT22;39789;53.216;5.624;2023-04-25T21:15:08;4.00;99.90
53876;DHT22;39789;53.216;5.624;2023-04-25T21:17:46;5.60;99.90
53876;DHT22;39789;53.216;5.624;2023-04-25T21:20:30;4.40;99.90
53876;DHT22;39789;53.216;5.624;2023-04-25T21:23:24;5.00;99.90
53876;DHT22;39789;53.216;5.624;2023-04-25T21:25:53;4.90;99.90
53876;DHT22;39789;53.216;5.624;2023-04-25T21:28:30;5.50;99.90
53876;DHT22;39789;53.216;5.624;2023-04-25T21:30:55;4.90;99.90
53876;DHT22;39789;53.216;5.624;2023-04-25T21:33:21;4.80;99.90
53876;DHT22;39789;53.216;5.624;2023-04-25T21:35:50;6.30;99.90
53876;DHT22;39789;53.216;5.624;2023-04-25T21:38:18;5.00;99.90
53876;DHT22;39789;53.216;5.624;2023-04-25T21:40:50;5.40;99.90
53876;DHT22;39789;53.216;5.624;2023-04-25T21:43:19;4.40;99.90
53876;DHT22;39789;53.216;5.624;2023-04-25T21:45:48;4.80;99.90
53876;DHT22;39789;53.216;5.624;2023-04-25T21:50:40;4.90;99.90
53876;DHT22;39789;53.216;5.624;2023-04-25T21:58:33;4.80;99.90
53876;DHT22;39789;53.216;5.624;2023-04-25T22:01:03;5.50;99.90
53876;DHT22;39789;53.216;5.624;2023-04-25T22:03:32;5.10;99.90
53876;DHT22;39789;53.216;5.624;2023-04-25T22:06:03;4.80;99.90
53876;DHT22;39789;53.216;5.624;2023-04-25T22:08:29;5.60;99.90
53876;DHT22;39789;53.216;5.624;2023-04-25T22:11:15;6.00;99.90
53876;DHT22;39789;53.216;5.624;2023-04-25T22:13:50;4.90;99.90
53876;DHT22;39789;53.216;5.624;2023-04-25T22:16:19;5.40;99.90
53876;DHT22;39789;53.216;5.624;2023-04-25T22:18:49;6.40;99.90
53876;DHT22;39789;53.216;5.624;2023-04-25T22:21:16;6.60;99.90
53876;DHT22;39789;53.216;5.624;2023-04-25T22:23:42;5.40;99.90
53876;DHT22;39789;53.216;5.624;2023-04-25T22:26:20;4.60;99.90
53876;DHT22;39789;53.216;5.624;2023-04-25T22:28:49;6.80;99.90
53876;DHT22;39789;53.216;5.624;2023-04-25T22:31:15;4.90;99.90
53876;DHT22;39789;53.216;5.624;2023-04-25T22:33:44;5.40;99.90
53876;DHT22;39789;53.216;5.624;2023-04-25T22:36:11;4.90;99.90
53876;DHT22;39789;53.216;5.624;2023-04-25T22:38:45;6.60;99.90
53876;DHT22;39789;53.216;5.624;2023-04-25T22:41:23;5.50;99.90
53876;DHT22;39789;53.216;5.624;2023-04-25T22:46:38;5.40;99.90
53876;DHT22;39789;53.216;5.624;2023-04-25T22:54:53;5.00;99.90
53876;DHT22;39789;53.216;5.624;2023-04-25T22:57:38;4.80;99.90
53876;DHT22;39789;53.216;5.624;2023-04-25T23:03:34;5.70;99.90
53876;DHT22;39789;53.216;5.624;2023-04-25T23:06:03;4.90;99.90
53876;DHT22;39789;53.216;5.624;2023-04-25T23:08:29;3.70;99.90
53876;DHT22;39789;53.216;5.624;2023-04-25T23:14:57;4.80;99.90
53876;DHT22;39789;53.216;5.624;2023-04-25T23:17:51;5.90;99.90
53876;DHT22;39789;53.216;5.624;2023-04-25T23:20:19;4.00;99.90
53876;DHT22;39789;53.216;5.624;2023-04-25T23:43:01;4.30;99.90
53876;DHT22;39789;53.216;5.624;2023-04-25T23:45:33;5.50;99.90
53876;DHT22;39789;53.216;5.624;2023-04-25T23:48:00;5.70;99.90
53876;DHT22;39789;53.216;5.624;2023-04-25T23:50:27;5.60;99.90
53876;DHT22;39789;53.216;5.624;2023-04-25T23:53:04;5.90;99.90
53876;DHT22;39789;53.216;5.624;2023-04-25T23:55:30;5.40;99.90
53876;DHT22;39789;53.216;5.624;2023-04-25T23:57:56;4.80;99.90
